sensor_id;sensor_type;location;lat;lon;timestamp;temperature;humidity
4813;DHT22;2420;51.202;8.698;2023-09-19T00:00:30;15.40;1.00
4813;DHT22;2420;51.202;8.698;2023-09-19T00:02:57;15.30;1.00
4813;DHT22;2420;51.202;8.698;2023-09-19T00:05:25;15.40;1.00
4813;DHT22;2420;51.202;8.698;2023-09-19T00:07:54;15.30;1.00
4813;DHT22;2420;51.202;8.698;2023-09-19T00:10:21;15.30;1.00
4813;DHT22;2420;51.202;8.698;2023-09-19T00:12:47;15.30;1.00
4813;DHT22;2420;51.202;8.698;2023-09-19T00:15:13;15.30;1.00
4813;DHT22;2420;51.202;8.698;2023-09-19T00:17:38;15.20;1.00
4813;DHT22;2420;51.202;8.698;2023-09-19T00:20:07;15.20;1.00
4813;DHT22;2420;51.202;8.698;2023-09-19T00:22:34;15.10;1.00
4813;DHT22;2420;51.202;8.698;2023-09-19T00:24:59;15.00;1.00
4813;DHT22;2420;51.202;8.698;2023-09-19T00:27:26;15.00;1.00
4813;DHT22;2420;51.202;8.698;2023-09-19T00:29:51;14.90;1.00
4813;DHT22;2420;51.202;8.698;2023-09-19T00:32:18;14.90;1.00
4813;DHT22;2420;51.202;8.698;2023-09-19T00:34:43;14.90;1.00
4813;DHT22;2420;51.202;8.698;2023-09-19T00:37:09;14.90;1.00
4813;DHT22;2420;51.202;8.698;2023-09-19T00:39:36;14.80;1.00
4813;DHT22;2420;51.202;8.698;2023-09-19T00:42:02;14.80;1.00
4813;DHT22;2420;51.202;8.698;2023-09-19T00:44:30;14.80;1.00
4813;DHT22;2420;51.202;8.698;2023-09-19T00:46:56;14.70;1.00
4813;DHT22;2420;51.202;8.698;2023-09-19T00:49:22;14.70;1.00
4813;DHT22;2420;51.202;8.698;2023-09-19T00:51:48;14.70;1.00
4813;DHT22;2420;51.202;8.698;2023-09-19T00:54:15;14.60;1.00
4813;DHT22;2420;51.202;8.698;2023-09-19T00:56:44;14.60;1.00
4813;DHT22;2420;51.202;8.698;2023-09-19T00:59:10;14.60;1.00
4813;DHT22;2420;51.202;8.698;2023-09-19T01:01:37;14.60;1.00
4813;DHT22;2420;51.202;8.698;2023-09-19T01:04:05;14.60;1.00
4813;DHT22;2420;51.202;8.698;2023-09-19T01:06:31;14.60;1.00
4813;DHT22;2420;51.202;8.698;2023-09-19T01:08:57;14.60;1.00
4813;DHT22;2420;51.202;8.698;2023-09-19T01:11:35;14.50;1.00
4813;DHT22;2420;51.202;8.698;2023-09-19T01:16:48;14.40;1.00
4813;DHT22;2420;51.202;8.698;2023-09-19T01:22:16;14.50;1.00
4813;DHT22;2420;51.202;8.698;2023-09-19T01:30:56;14.40;1.00
4813;DHT22;2420;51.202;8.698;2023-09-19T01:33:24;14.40;1.00
4813;DHT22;2420;51.202;8.698;2023-09-19T01:35:51;14.30;1.00
4813;DHT22;2420;51.202;8.698;2023-09-19T01:38:19;14.30;1.00
4813;DHT22;2420;51.202;8.698;2023-09-19T01:40:57;14.30;1.00
4813;DHT22;2420;51.202;8.698;2023-09-19T01:43:32;14.30;1.00
4813;DHT22;2420;51.202;8.698;2023-09-19T01:46:12;14.20;1.00
4813;DHT22;2420;51.202;8.698;2023-09-19T01:51:30;14.20;1.00
4813;DHT22;2420;51.202;8.698;2023-09-19T01:54:09;14.10;1.00
4813;DHT22;2420;51.202;8.698;2023-09-19T01:59:25;14.10;1.00
4813;DHT22;2420;51.202;8.698;2023-09-19T02:01:53;14.10;1.00
4813;DHT22;2420;51.202;8.698;2023-09-19T02:04:19;14.10;1.00
4813;DHT22;2420;51.202;8.698;2023-09-19T02:06:45;14.10;1.00
4813;DHT22;2420;51.202;8.698;2023-09-19T02:09:13;14.10;1.00
4813;DHT22;2420;51.202;8.698;2023-09-19T02:11:40;14.10;1.00
4813;DHT22;2420;51.202;8.698;2023-09-19T02:14:06;14.00;1.00
4813;DHT22;2420;51.202;8.698;2023-09-19T02:16:34;14.00;1.00
4813;DHT22;2420;51.202;8.698;2023-09-19T02:19:00;14.00;1.00
4813;DHT22;2420;51.202;8.698;2023-09-19T02:21:26;14.00;1.00
4813;DHT22;2420;51.202;8.698;2023-09-19T02:23:55;13.90;1.00
4813;DHT22;2420;51.202;8.698;2023-09-19T02:26:20;13.90;1.00
4813;DHT22;2420;51.202;8.698;2023-09-19T02:28:47;13.90;1.00
4813;DHT22;2420;51.202;8.698;2023-09-19T02:31:12;13.80;1.00
4813;DHT22;2420;51.202;8.698;2023-09-19T02:33:38;13.80;1.00
4813;DHT22;2420;51.202;8.698;2023-09-19T02:36:04;13.80;1.00
4813;DHT22;2420;51.202;8.698;2023-09-19T02:38:30;13.80;1.00
4813;DHT22;2420;51.202;8.698;2023-09-19T02:40:55;13.80;1.00
4813;DHT22;2420;51.202;8.698;2023-09-19T02:43:22;13.80;1.00
4813;DHT22;2420;51.202;8.698;2023-09-19T02:45:48;13.80;1.00
4813;DHT22;2420;51.202;8.698;2023-09-19T02:48:22;13.80;1.00
4813;DHT22;2420;51.202;8.698;2023-09-19T02:50:50;13.80;1.00
4813;DHT22;2420;51.202;8.698;2023-09-19T02:53:16;13.80;1.00
4813;DHT22;2420;51.202;8.698;2023-09-19T02:55:42;13.80;1.00
4813;DHT22;2420;51.202;8.698;2023-09-19T02:58:08;13.70;1.00
4813;DHT22;2420;51.202;8.698;2023-09-19T03:00:35;13.80;1.00
4813;DHT22;2420;51.202;8.698;2023-09-19T03:03:01;13.90;1.00
4813;DHT22;2420;51.202;8.698;2023-09-19T03:05:27;13.80;1.00
4813;DHT22;2420;51.202;8.698;2023-09-19T03:07:56;13.80;1.00
4813;DHT22;2420;51.202;8.698;2023-09-19T03:10:22;13.80;1.00
4813;DHT22;2420;51.202;8.698;2023-09-19T03:12:50;13.80;1.00
4813;DHT22;2420;51.202;8.698;2023-09-19T03:15:16;13.90;1.00
4813;DHT22;2420;51.202;8.698;2023-09-19T03:17:46;13.90;1.00
4813;DHT22;2420;51.202;8.698;2023-09-19T03:20:13;13.90;1.00
4813;DHT22;2420;51.202;8.698;2023-09-19T03:22:39;13.90;1.00
4813;DHT22;2420;51.202;8.698;2023-09-19T03:25:06;14.00;1.00
4813;DHT22;2420;51.202;8.698;2023-09-19T03:27:34;13.90;1.00
4813;DHT22;2420;51.202;8.698;2023-09-19T03:30:00;14.00;1.00
4813;DHT22;2420;51.202;8.698;2023-09-19T03:32:26;14.00;1.00
4813;DHT22;2420;51.202;8.698;2023-09-19T03:34:51;14.00;1.00
4813;DHT22;2420;51.202;8.698;2023-09-19T03:37:17;14.00;1.00
4813;DHT22;2420;51.202;8.698;2023-09-19T03:39:43;14.00;1.00
4813;DHT22;2420;51.202;8.698;2023-09-19T03:42:09;14.00;1.00
4813;DHT22;2420;51.202;8.698;2023-09-19T03:44:35;14.10;1.00
4813;DHT22;2420;51.202;8.698;2023-09-19T03:47:00;14.00;1.00
4813;DHT22;2420;51.202;8.698;2023-09-19T03:49:26;14.00;1.00
4813;DHT22;2420;51.202;8.698;2023-09-19T03:51:51;14.00;1.00
4813;DHT22;2420;51.202;8.698;2023-09-19T03:54:17;14.10;1.00
4813;DHT22;2420;51.202;8.698;2023-09-19T03:56:44;14.10;1.00
4813;DHT22;2420;51.202;8.698;2023-09-19T03:59:10;14.10;1.00
4813;DHT22;2420;51.202;8.698;2023-09-19T04:01:37;14.10;1.00
4813;DHT22;2420;51.202;8.698;2023-09-19T04:04:03;14.10;1.00
4813;DHT22;2420;51.202;8.698;2023-09-19T04:06:39;14.10;1.00
4813;DHT22;2420;51.202;8.698;2023-09-19T04:09:05;14.00;1.00
4813;DHT22;2420;51.202;8.698;2023-09-19T04:11:33;14.00;1.00
4813;DHT22;2420;51.202;8.698;2023-09-19T04:13:59;14.00;1.00
4813;DHT22;2420;51.202;8.698;2023-09-19T04:16:25;14.10;1.00
4813;DHT22;2420;51.202;8.698;2023-09-19T04:18:51;14.00;1.00
4813;DHT22;2420;51.202;8.698;2023-09-19T04:21:17;14.10;1.00
4813;DHT22;2420;51.202;8.698;2023-09-19T04:23:42;13.90;1.00
4813;DHT22;2420;51.202;8.698;2023-09-19T04:26:08;13.80;1.00
4813;DHT22;2420;51.202;8.698;2023-09-19T04:28:34;13.80;1.00
4813;DHT22;2420;51.202;8.698;2023-09-19T04:31:00;13.80;1.00
4813;DHT22;2420;51.202;8.698;2023-09-19T04:33:26;13.80;1.00
4813;DHT22;2420;51.202;8.698;2023-09-19T04:35:54;13.80;1.00
4813;DHT22;2420;51.202;8.698;2023-09-19T04:38:21;13.70;1.00
4813;DHT22;2420;51.202;8.698;2023-09-19T04:40:47;13.70;1.00
4813;DHT22;2420;51.202;8.698;2023-09-19T04:43:12;13.60;1.00
4813;DHT22;2420;51.202;8.698;2023-09-19T04:45:39;13.60;1.00
4813;DHT22;2420;51.202;8.698;2023-09-19T04:48:05;13.60;1.00
4813;DHT22;2420;51.202;8.698;2023-09-19T04:50:37;13.60;1.00
4813;DHT22;2420;51.202;8.698;2023-09-19T04:53:03;13.50;1.00
4813;DHT22;2420;51.202;8.698;2023-09-19T04:55:29;13.50;1.00
4813;DHT22;2420;51.202;8.698;2023-09-19T04:57:55;13.50;1.00
4813;DHT22;2420;51.202;8.698;2023-09-19T05:00:22;13.40;1.00
4813;DHT22;2420;51.202;8.698;2023-09-19T05:02:55;13.40;1.00
4813;DHT22;2420;51.202;8.698;2023-09-19T05:05:24;13.40;1.00
4813;DHT22;2420;51.202;8.698;2023-09-19T05:07:50;13.40;1.00
4813;DHT22;2420;51.202;8.698;2023-09-19T05:10:17;13.40;1.00
4813;DHT22;2420;51.202;8.698;2023-09-19T05:12:44;13.30;1.00
4813;DHT22;2420;51.202;8.698;2023-09-19T05:15:12;13.30;1.00
4813;DHT22;2420;51.202;8.698;2023-09-19T05:17:39;13.30;1.00
4813;DHT22;2420;51.202;8.698;2023-09-19T05:20:06;13.30;1.00
4813;DHT22;2420;51.202;8.698;2023-09-19T05:22:50;13.20;1.00
4813;DHT22;2420;51.202;8.698;2023-09-19T05:25:16;13.20;1.00
4813;DHT22;2420;51.202;8.698;2023-09-19T05:27:44;13.20;1.00
4813;DHT22;2420;51.202;8.698;2023-09-19T05:30:10;13.20;1.00
4813;DHT22;2420;51.202;8.698;2023-09-19T05:32:36;13.20;1.00
4813;DHT22;2420;51.202;8.698;2023-09-19T05:35:01;13.20;1.00
4813;DHT22;2420;51.202;8.698;2023-09-19T05:37:28;13.20;1.00
4813;DHT22;2420;51.202;8.698;2023-09-19T05:39:55;13.20;1.00
4813;DHT22;2420;51.202;8.698;2023-09-19T05:42:20;13.30;1.00
4813;DHT22;2420;51.202;8.698;2023-09-19T05:44:46;13.20;1.00
4813;DHT22;2420;51.202;8.698;2023-09-19T05:47:11;13.10;1.00
4813;DHT22;2420;51.202;8.698;2023-09-19T05:49:38;13.20;1.00
4813;DHT22;2420;51.202;8.698;2023-09-19T05:52:05;13.10;1.00
4813;DHT22;2420;51.202;8.698;2023-09-19T05:54:31;13.20;1.00
4813;DHT22;2420;51.202;8.698;2023-09-19T05:56:58;13.10;1.00
4813;DHT22;2420;51.202;8.698;2023-09-19T05:59:24;13.20;1.00
4813;DHT22;2420;51.202;8.698;2023-09-19T06:01:49;13.20;1.00
4813;DHT22;2420;51.202;8.698;2023-09-19T06:04:15;13.20;1.00
4813;DHT22;2420;51.202;8.698;2023-09-19T06:06:40;13.20;1.00
4813;DHT22;2420;51.202;8.698;2023-09-19T06:09:06;13.20;1.00
4813;DHT22;2420;51.202;8.698;2023-09-19T06:11:35;13.10;1.00
4813;DHT22;2420;51.202;8.698;2023-09-19T06:14:02;13.20;1.00
4813;DHT22;2420;51.202;8.698;2023-09-19T06:16:29;13.30;1.00
4813;DHT22;2420;51.202;8.698;2023-09-19T06:18:54;13.30;1.00
4813;DHT22;2420;51.202;8.698;2023-09-19T06:21:22;13.20;1.00
4813;DHT22;2420;51.202;8.698;2023-09-19T06:23:48;13.20;1.00
4813;DHT22;2420;51.202;8.698;2023-09-19T06:26:13;13.20;1.00
4813;DHT22;2420;51.202;8.698;2023-09-19T06:28:40;13.20;1.00
4813;DHT22;2420;51.202;8.698;2023-09-19T06:31:05;13.30;1.00
4813;DHT22;2420;51.202;8.698;2023-09-19T06:33:35;13.30;1.00
4813;DHT22;2420;51.202;8.698;2023-09-19T06:36:04;13.40;1.00
4813;DHT22;2420;51.202;8.698;2023-09-19T06:38:30;13.40;1.00
4813;DHT22;2420;51.202;8.698;2023-09-19T06:40:58;13.50;1.00
4813;DHT22;2420;51.202;8.698;2023-09-19T06:43:23;13.60;1.00
4813;DHT22;2420;51.202;8.698;2023-09-19T06:45:49;13.60;1.00
4813;DHT22;2420;51.202;8.698;2023-09-19T06:48:17;13.70;1.00
4813;DHT22;2420;51.202;8.698;2023-09-19T06:50:43;13.70;1.00
4813;DHT22;2420;51.202;8.698;2023-09-19T06:53:10;13.80;1.00
4813;DHT22;2420;51.202;8.698;2023-09-19T06:55:35;13.70;1.00
4813;DHT22;2420;51.202;8.698;2023-09-19T06:58:02;13.70;1.00
4813;DHT22;2420;51.202;8.698;2023-09-19T07:00:27;13.70;1.00
4813;DHT22;2420;51.202;8.698;2023-09-19T07:03:04;13.70;1.00
4813;DHT22;2420;51.202;8.698;2023-09-19T07:05:36;13.80;1.00
4813;DHT22;2420;51.202;8.698;2023-09-19T07:08:03;13.90;1.00
4813;DHT22;2420;51.202;8.698;2023-09-19T07:10:29;14.00;1.00
4813;DHT22;2420;51.202;8.698;2023-09-19T07:13:15;14.00;1.00
4813;DHT22;2420;51.202;8.698;2023-09-19T07:15:42;14.10;1.00
4813;DHT22;2420;51.202;8.698;2023-09-19T07:18:13;14.10;1.00
4813;DHT22;2420;51.202;8.698;2023-09-19T07:20:40;14.20;1.00
4813;DHT22;2420;51.202;8.698;2023-09-19T07:23:11;14.10;1.00
4813;DHT22;2420;51.202;8.698;2023-09-19T07:25:39;14.10;1.00
4813;DHT22;2420;51.202;8.698;2023-09-19T07:28:05;14.10;1.00
4813;DHT22;2420;51.202;8.698;2023-09-19T07:30:30;14.20;1.00
4813;DHT22;2420;51.202;8.698;2023-09-19T07:32:56;14.20;1.00
4813;DHT22;2420;51.202;8.698;2023-09-19T07:35:22;14.20;1.00
4813;DHT22;2420;51.202;8.698;2023-09-19T07:37:48;14.20;1.00
4813;DHT22;2420;51.202;8.698;2023-09-19T07:40:21;14.20;1.00
4813;DHT22;2420;51.202;8.698;2023-09-19T07:42:49;14.30;1.00
4813;DHT22;2420;51.202;8.698;2023-09-19T07:45:16;14.40;1.00
4813;DHT22;2420;51.202;8.698;2023-09-19T07:47:49;14.50;1.00
4813;DHT22;2420;51.202;8.698;2023-09-19T07:50:15;14.60;1.00
4813;DHT22;2420;51.202;8.698;2023-09-19T07:52:41;14.70;1.00
4813;DHT22;2420;51.202;8.698;2023-09-19T07:55:08;14.80;1.00
4813;DHT22;2420;51.202;8.698;2023-09-19T07:57:35;14.80;1.00
4813;DHT22;2420;51.202;8.698;2023-09-19T08:00:00;14.80;1.00
4813;DHT22;2420;51.202;8.698;2023-09-19T08:02:26;14.80;1.00
4813;DHT22;2420;51.202;8.698;2023-09-19T08:04:53;14.90;1.00
4813;DHT22;2420;51.202;8.698;2023-09-19T08:07:19;14.90;1.00
4813;DHT22;2420;51.202;8.698;2023-09-19T08:09:44;14.80;1.00
4813;DHT22;2420;51.202;8.698;2023-09-19T08:12:11;14.90;1.00
4813;DHT22;2420;51.202;8.698;2023-09-19T08:14:37;14.90;1.00
4813;DHT22;2420;51.202;8.698;2023-09-19T08:17:03;14.90;1.00
4813;DHT22;2420;51.202;8.698;2023-09-19T08:19:31;14.90;1.00
4813;DHT22;2420;51.202;8.698;2023-09-19T08:22:00;14.90;1.00
4813;DHT22;2420;51.202;8.698;2023-09-19T08:24:30;14.90;1.00
4813;DHT22;2420;51.202;8.698;2023-09-19T08:26:56;15.00;1.00
4813;DHT22;2420;51.202;8.698;2023-09-19T08:29:23;15.00;1.00
4813;DHT22;2420;51.202;8.698;2023-09-19T08:31:56;15.00;1.00
4813;DHT22;2420;51.202;8.698;2023-09-19T08:34:26;14.90;1.00
4813;DHT22;2420;51.202;8.698;2023-09-19T08:36:54;15.00;1.00
4813;DHT22;2420;51.202;8.698;2023-09-19T08:39:25;15.00;1.00
4813;DHT22;2420;51.202;8.698;2023-09-19T08:41:58;15.10;1.00
4813;DHT22;2420;51.202;8.698;2023-09-19T08:44:24;15.20;1.00
4813;DHT22;2420;51.202;8.698;2023-09-19T08:46:54;15.30;1.00
4813;DHT22;2420;51.202;8.698;2023-09-19T08:49:29;15.40;1.00
4813;DHT22;2420;51.202;8.698;2023-09-19T08:52:16;15.50;1.00
4813;DHT22;2420;51.202;8.698;2023-09-19T08:54:45;15.40;1.00
4813;DHT22;2420;51.202;8.698;2023-09-19T08:57:12;15.40;1.00
4813;DHT22;2420;51.202;8.698;2023-09-19T08:59:48;15.40;1.00
4813;DHT22;2420;51.202;8.698;2023-09-19T09:02:15;15.50;1.00
4813;DHT22;2420;51.202;8.698;2023-09-19T09:04:43;15.50;1.00
4813;DHT22;2420;51.202;8.698;2023-09-19T09:07:11;15.50;1.00
4813;DHT22;2420;51.202;8.698;2023-09-19T09:09:38;15.30;1.00
4813;DHT22;2420;51.202;8.698;2023-09-19T09:12:16;15.40;1.00
4813;DHT22;2420;51.202;8.698;2023-09-19T09:14:46;15.50;1.00
4813;DHT22;2420;51.202;8.698;2023-09-19T09:17:15;15.60;1.00
4813;DHT22;2420;51.202;8.698;2023-09-19T09:19:43;15.60;1.00
4813;DHT22;2420;51.202;8.698;2023-09-19T09:22:10;15.70;1.00
4813;DHT22;2420;51.202;8.698;2023-09-19T09:24:36;15.80;1.00
4813;DHT22;2420;51.202;8.698;2023-09-19T09:27:04;15.90;1.00
4813;DHT22;2420;51.202;8.698;2023-09-19T09:29:48;16.00;1.00
4813;DHT22;2420;51.202;8.698;2023-09-19T09:32:24;15.90;1.00
4813;DHT22;2420;51.202;8.698;2023-09-19T09:34:54;15.70;1.00
4813;DHT22;2420;51.202;8.698;2023-09-19T09:37:21;15.80;1.00
4813;DHT22;2420;51.202;8.698;2023-09-19T09:39:55;15.80;1.00
4813;DHT22;2420;51.202;8.698;2023-09-19T09:42:34;15.80;1.00
4813;DHT22;2420;51.202;8.698;2023-09-19T09:45:23;15.90;1.00
4813;DHT22;2420;51.202;8.698;2023-09-19T09:48:03;15.80;1.00
4813;DHT22;2420;51.202;8.698;2023-09-19T09:50:33;15.80;1.00
4813;DHT22;2420;51.202;8.698;2023-09-19T09:53:26;15.80;1.00
4813;DHT22;2420;51.202;8.698;2023-09-19T09:56:08;15.80;1.00
4813;DHT22;2420;51.202;8.698;2023-09-19T09:58:51;15.80;1.00
4813;DHT22;2420;51.202;8.698;2023-09-19T10:01:24;15.80;1.00
4813;DHT22;2420;51.202;8.698;2023-09-19T10:03:57;15.70;1.00
4813;DHT22;2420;51.202;8.698;2023-09-19T10:06:23;15.70;1.00
4813;DHT22;2420;51.202;8.698;2023-09-19T10:11:38;15.80;1.00
4813;DHT22;2420;51.202;8.698;2023-09-19T10:14:07;15.80;1.00
4813;DHT22;2420;51.202;8.698;2023-09-19T10:16:35;15.90;1.00
4813;DHT22;2420;51.202;8.698;2023-09-19T10:19:08;16.10;1.00
4813;DHT22;2420;51.202;8.698;2023-09-19T10:21:36;16.20;1.00
4813;DHT22;2420;51.202;8.698;2023-09-19T10:24:05;16.40;1.00
4813;DHT22;2420;51.202;8.698;2023-09-19T10:26:35;16.40;1.00
4813;DHT22;2420;51.202;8.698;2023-09-19T10:29:01;16.50;1.00
4813;DHT22;2420;51.202;8.698;2023-09-19T10:31:29;16.30;1.00
4813;DHT22;2420;51.202;8.698;2023-09-19T10:34:02;16.40;1.00
4813;DHT22;2420;51.202;8.698;2023-09-19T10:36:32;16.30;1.00
4813;DHT22;2420;51.202;8.698;2023-09-19T10:38:59;16.30;1.00
4813;DHT22;2420;51.202;8.698;2023-09-19T10:41:30;16.30;1.00
4813;DHT22;2420;51.202;8.698;2023-09-19T10:44:04;16.40;1.00
4813;DHT22;2420;51.202;8.698;2023-09-19T10:46:34;16.40;1.00
4813;DHT22;2420;51.202;8.698;2023-09-19T10:49:02;16.40;1.00
4813;DHT22;2420;51.202;8.698;2023-09-19T10:51:39;16.50;1.00
4813;DHT22;2420;51.202;8.698;2023-09-19T10:54:10;16.60;1.00
4813;DHT22;2420;51.202;8.698;2023-09-19T10:56:42;16.70;1.00
4813;DHT22;2420;51.202;8.698;2023-09-19T10:59:17;16.60;1.00
4813;DHT22;2420;51.202;8.698;2023-09-19T11:01:48;16.80;1.00
4813;DHT22;2420;51.202;8.698;2023-09-19T11:04:37;16.90;1.00
4813;DHT22;2420;51.202;8.698;2023-09-19T11:07:09;17.00;1.00
4813;DHT22;2420;51.202;8.698;2023-09-19T11:09:55;17.20;1.00
4813;DHT22;2420;51.202;8.698;2023-09-19T11:14:55;17.20;1.00
4813;DHT22;2420;51.202;8.698;2023-09-19T11:30:39;16.70;1.00
4813;DHT22;2420;51.202;8.698;2023-09-19T11:33:30;16.90;1.00
4813;DHT22;2420;51.202;8.698;2023-09-19T11:35:59;16.70;1.00
4813;DHT22;2420;51.202;8.698;2023-09-19T11:43:46;17.00;1.00
4813;DHT22;2420;51.202;8.698;2023-09-19T11:46:12;17.20;1.00
4813;DHT22;2420;51.202;8.698;2023-09-19T11:48:43;17.30;1.00
4813;DHT22;2420;51.202;8.698;2023-09-19T11:51:11;17.40;1.00
4813;DHT22;2420;51.202;8.698;2023-09-19T11:53:45;17.50;1.00
4813;DHT22;2420;51.202;8.698;2023-09-19T11:56:17;17.50;1.00
4813;DHT22;2420;51.202;8.698;2023-09-19T11:58:44;17.60;1.00
4813;DHT22;2420;51.202;8.698;2023-09-19T12:01:13;17.70;1.00
4813;DHT22;2420;51.202;8.698;2023-09-19T12:03:42;17.80;1.00
4813;DHT22;2420;51.202;8.698;2023-09-19T12:06:14;17.90;1.00
4813;DHT22;2420;51.202;8.698;2023-09-19T12:08:41;17.80;1.00
4813;DHT22;2420;51.202;8.698;2023-09-19T12:11:15;17.90;1.00
4813;DHT22;2420;51.202;8.698;2023-09-19T12:13:45;17.70;1.00
4813;DHT22;2420;51.202;8.698;2023-09-19T12:16:21;17.60;1.00
4813;DHT22;2420;51.202;8.698;2023-09-19T12:18:48;17.70;1.00
4813;DHT22;2420;51.202;8.698;2023-09-19T12:21:31;17.70;1.00
4813;DHT22;2420;51.202;8.698;2023-09-19T12:26:41;17.80;1.00
4813;DHT22;2420;51.202;8.698;2023-09-19T12:29:20;18.00;1.00
4813;DHT22;2420;51.202;8.698;2023-09-19T12:31:50;17.90;1.00
4813;DHT22;2420;51.202;8.698;2023-09-19T12:34:25;17.80;1.00
4813;DHT22;2420;51.202;8.698;2023-09-19T12:37:10;17.90;1.00
4813;DHT22;2420;51.202;8.698;2023-09-19T12:39:46;17.70;1.00
4813;DHT22;2420;51.202;8.698;2023-09-19T12:42:16;17.60;1.00
4813;DHT22;2420;51.202;8.698;2023-09-19T12:44:46;17.70;1.00
4813;DHT22;2420;51.202;8.698;2023-09-19T12:47:17;17.80;1.00
4813;DHT22;2420;51.202;8.698;2023-09-19T12:52:56;17.60;1.00
4813;DHT22;2420;51.202;8.698;2023-09-19T12:55:27;17.50;1.00
4813;DHT22;2420;51.202;8.698;2023-09-19T12:58:12;17.50;1.00
4813;DHT22;2420;51.202;8.698;2023-09-19T13:00:43;17.40;1.00
4813;DHT22;2420;51.202;8.698;2023-09-19T13:08:37;17.30;1.00
4813;DHT22;2420;51.202;8.698;2023-09-19T13:11:16;17.40;1.00
4813;DHT22;2420;51.202;8.698;2023-09-19T13:13:47;17.40;1.00
4813;DHT22;2420;51.202;8.698;2023-09-19T13:16:15;17.50;1.00
4813;DHT22;2420;51.202;8.698;2023-09-19T13:18:47;17.50;1.00
4813;DHT22;2420;51.202;8.698;2023-09-19T13:21:14;17.50;1.00
4813;DHT22;2420;51.202;8.698;2023-09-19T13:23:54;17.50;1.00
4813;DHT22;2420;51.202;8.698;2023-09-19T13:26:27;17.50;1.00
4813;DHT22;2420;51.202;8.698;2023-09-19T13:28:54;17.70;1.00
4813;DHT22;2420;51.202;8.698;2023-09-19T13:31:19;17.80;1.00
4813;DHT22;2420;51.202;8.698;2023-09-19T13:33:48;17.90;1.00
4813;DHT22;2420;51.202;8.698;2023-09-19T13:36:15;17.70;1.00
4813;DHT22;2420;51.202;8.698;2023-09-19T13:38:41;17.80;1.00
4813;DHT22;2420;51.202;8.698;2023-09-19T13:41:10;18.10;1.00
4813;DHT22;2420;51.202;8.698;2023-09-19T13:43:37;18.00;1.00
4813;DHT22;2420;51.202;8.698;2023-09-19T13:46:04;18.00;1.00
4813;DHT22;2420;51.202;8.698;2023-09-19T13:48:30;17.90;1.00
4813;DHT22;2420;51.202;8.698;2023-09-19T13:50:56;17.70;1.00
4813;DHT22;2420;51.202;8.698;2023-09-19T13:53:22;17.70;1.00
4813;DHT22;2420;51.202;8.698;2023-09-19T13:55:47;17.60;1.00
4813;DHT22;2420;51.202;8.698;2023-09-19T13:58:14;17.50;1.00
4813;DHT22;2420;51.202;8.698;2023-09-19T14:00:40;17.70;1.00
4813;DHT22;2420;51.202;8.698;2023-09-19T14:03:05;17.70;1.00
4813;DHT22;2420;51.202;8.698;2023-09-19T14:05:31;17.90;1.00
4813;DHT22;2420;51.202;8.698;2023-09-19T14:07:57;17.90;1.00
4813;DHT22;2420;51.202;8.698;2023-09-19T14:10:25;17.90;1.00
4813;DHT22;2420;51.202;8.698;2023-09-19T14:12:52;17.90;1.00
4813;DHT22;2420;51.202;8.698;2023-09-19T14:15:18;18.10;1.00
4813;DHT22;2420;51.202;8.698;2023-09-19T14:17:43;18.20;1.00
4813;DHT22;2420;51.202;8.698;2023-09-19T14:20:12;18.10;1.00
4813;DHT22;2420;51.202;8.698;2023-09-19T14:22:37;18.00;1.00
4813;DHT22;2420;51.202;8.698;2023-09-19T14:25:04;17.90;1.00
4813;DHT22;2420;51.202;8.698;2023-09-19T14:27:30;17.90;1.00
4813;DHT22;2420;51.202;8.698;2023-09-19T14:29:56;18.00;1.00
4813;DHT22;2420;51.202;8.698;2023-09-19T14:32:23;17.90;1.00
4813;DHT22;2420;51.202;8.698;2023-09-19T14:34:48;18.00;1.00
4813;DHT22;2420;51.202;8.698;2023-09-19T14:37:14;18.10;1.00
4813;DHT22;2420;51.202;8.698;2023-09-19T14:39:41;18.10;1.00
4813;DHT22;2420;51.202;8.698;2023-09-19T14:42:10;18.10;1.00
4813;DHT22;2420;51.202;8.698;2023-09-19T14:44:35;18.10;1.00
4813;DHT22;2420;51.202;8.698;2023-09-19T14:47:03;17.90;1.00
4813;DHT22;2420;51.202;8.698;2023-09-19T14:49:33;17.80;1.00
4813;DHT22;2420;51.202;8.698;2023-09-19T14:51:59;17.80;1.00
4813;DHT22;2420;51.202;8.698;2023-09-19T14:54:24;17.80;1.00
4813;DHT22;2420;51.202;8.698;2023-09-19T14:56:50;18.00;1.00
4813;DHT22;2420;51.202;8.698;2023-09-19T14:59:21;17.90;1.00
4813;DHT22;2420;51.202;8.698;2023-09-19T15:01:46;17.90;1.00
4813;DHT22;2420;51.202;8.698;2023-09-19T15:04:15;17.90;1.00
4813;DHT22;2420;51.202;8.698;2023-09-19T15:06:41;17.90;1.00
4813;DHT22;2420;51.202;8.698;2023-09-19T15:09:06;17.80;1.00
4813;DHT22;2420;51.202;8.698;2023-09-19T15:11:34;17.90;1.00
4813;DHT22;2420;51.202;8.698;2023-09-19T15:13:59;17.80;1.00
4813;DHT22;2420;51.202;8.698;2023-09-19T15:16:25;17.80;1.00
4813;DHT22;2420;51.202;8.698;2023-09-19T15:18:50;17.70;1.00
4813;DHT22;2420;51.202;8.698;2023-09-19T15:21:17;17.80;1.00
4813;DHT22;2420;51.202;8.698;2023-09-19T15:23:43;17.80;1.00
4813;DHT22;2420;51.202;8.698;2023-09-19T15:26:13;17.80;1.00
4813;DHT22;2420;51.202;8.698;2023-09-19T15:28:42;17.70;1.00
4813;DHT22;2420;51.202;8.698;2023-09-19T15:31:10;17.60;1.00
4813;DHT22;2420;51.202;8.698;2023-09-19T15:33:36;17.60;1.00
4813;DHT22;2420;51.202;8.698;2023-09-19T15:36:06;17.70;1.00
4813;DHT22;2420;51.202;8.698;2023-09-19T15:38:58;17.70;1.00
4813;DHT22;2420;51.202;8.698;2023-09-19T15:41:25;17.70;1.00
4813;DHT22;2420;51.202;8.698;2023-09-19T15:43:51;17.70;1.00
4813;DHT22;2420;51.202;8.698;2023-09-19T15:46:17;17.70;1.00
4813;DHT22;2420;51.202;8.698;2023-09-19T15:48:43;17.70;1.00
4813;DHT22;2420;51.202;8.698;2023-09-19T15:51:09;17.60;1.00
4813;DHT22;2420;51.202;8.698;2023-09-19T15:53:51;17.60;1.00
4813;DHT22;2420;51.202;8.698;2023-09-19T15:56:17;17.40;1.00
4813;DHT22;2420;51.202;8.698;2023-09-19T15:58:47;17.30;1.00
4813;DHT22;2420;51.202;8.698;2023-09-19T16:01:13;17.30;1.00
4813;DHT22;2420;51.202;8.698;2023-09-19T16:03:43;17.20;1.00
4813;DHT22;2420;51.202;8.698;2023-09-19T16:06:13;17.20;1.00
4813;DHT22;2420;51.202;8.698;2023-09-19T16:08:43;17.20;1.00
4813;DHT22;2420;51.202;8.698;2023-09-19T16:11:10;17.20;1.00
4813;DHT22;2420;51.202;8.698;2023-09-19T16:13:39;17.10;1.00
4813;DHT22;2420;51.202;8.698;2023-09-19T16:16:07;17.10;1.00
4813;DHT22;2420;51.202;8.698;2023-09-19T16:18:34;17.10;1.00
4813;DHT22;2420;51.202;8.698;2023-09-19T16:21:03;17.10;1.00
4813;DHT22;2420;51.202;8.698;2023-09-19T16:23:30;17.10;1.00
4813;DHT22;2420;51.202;8.698;2023-09-19T16:26:05;17.10;1.00
4813;DHT22;2420;51.202;8.698;2023-09-19T16:28:32;17.10;1.00
4813;DHT22;2420;51.202;8.698;2023-09-19T16:31:00;17.00;1.00
4813;DHT22;2420;51.202;8.698;2023-09-19T16:33:28;17.00;1.00
4813;DHT22;2420;51.202;8.698;2023-09-19T16:35:54;17.00;1.00
4813;DHT22;2420;51.202;8.698;2023-09-19T16:38:20;17.00;1.00
4813;DHT22;2420;51.202;8.698;2023-09-19T16:40:56;16.90;1.00
4813;DHT22;2420;51.202;8.698;2023-09-19T16:43:24;16.90;1.00
4813;DHT22;2420;51.202;8.698;2023-09-19T16:46:00;16.90;1.00
4813;DHT22;2420;51.202;8.698;2023-09-19T16:48:27;16.90;1.00
4813;DHT22;2420;51.202;8.698;2023-09-19T16:50:53;16.80;1.00
4813;DHT22;2420;51.202;8.698;2023-09-19T16:53:19;16.80;1.00
4813;DHT22;2420;51.202;8.698;2023-09-19T16:55:46;16.80;1.00
4813;DHT22;2420;51.202;8.698;2023-09-19T16:58:16;16.80;1.00
4813;DHT22;2420;51.202;8.698;2023-09-19T17:00:42;16.80;1.00
4813;DHT22;2420;51.202;8.698;2023-09-19T17:03:09;16.70;1.00
4813;DHT22;2420;51.202;8.698;2023-09-19T17:05:38;16.70;1.00
4813;DHT22;2420;51.202;8.698;2023-09-19T17:08:06;16.60;1.00
4813;DHT22;2420;51.202;8.698;2023-09-19T17:10:33;16.60;1.00
4813;DHT22;2420;51.202;8.698;2023-09-19T17:12:59;16.50;1.00
4813;DHT22;2420;51.202;8.698;2023-09-19T17:15:25;16.50;1.00
4813;DHT22;2420;51.202;8.698;2023-09-19T17:17:51;16.40;1.00